sensor_id;sensor_type;location;lat;lon;timestamp;temperature;humidity
12769;DHT22;6448;48.916;8.990;2023-07-13T00:00:39;26.50;39.40
12769;DHT22;6448;48.916;8.990;2023-07-13T00:01:41;26.40;39.30
12769;DHT22;6448;48.916;8.990;2023-07-13T00:02:43;26.40;39.30
12769;DHT22;6448;48.916;8.990;2023-07-13T00:03:44;26.30;39.20
12769;DHT22;6448;48.916;8.990;2023-07-13T00:04:46;26.40;39.20
12769;DHT22;6448;48.916;8.990;2023-07-13T00:05:57;26.40;39.20
12769;DHT22;6448;48.916;8.990;2023-07-13T00:06:59;26.40;39.30
12769;DHT22;6448;48.916;8.990;2023-07-13T00:07:59;26.30;39.20
12769;DHT22;6448;48.916;8.990;2023-07-13T00:09:01;26.40;39.30
12769;DHT22;6448;48.916;8.990;2023-07-13T00:10:03;26.30;39.30
12769;DHT22;6448;48.916;8.990;2023-07-13T00:11:05;26.30;39.40
12769;DHT22;6448;48.916;8.990;2023-07-13T00:12:23;26.30;39.40
12769;DHT22;6448;48.916;8.990;2023-07-13T00:13:25;26.30;39.40
12769;DHT22;6448;48.916;8.990;2023-07-13T00:14:27;26.30;39.40
12769;DHT22;6448;48.916;8.990;2023-07-13T00:15:29;26.30;39.30
12769;DHT22;6448;48.916;8.990;2023-07-13T00:16:33;26.40;39.40
12769;DHT22;6448;48.916;8.990;2023-07-13T00:17:35;26.30;39.30
12769;DHT22;6448;48.916;8.990;2023-07-13T00:18:36;26.30;39.20
12769;DHT22;6448;48.916;8.990;2023-07-13T00:19:38;26.40;39.20
12769;DHT22;6448;48.916;8.990;2023-07-13T00:20:39;26.30;39.10
12769;DHT22;6448;48.916;8.990;2023-07-13T00:21:43;26.30;39.10
12769;DHT22;6448;48.916;8.990;2023-07-13T00:22:44;26.30;39.10
12769;DHT22;6448;48.916;8.990;2023-07-13T00:23:44;26.30;39.00
12769;DHT22;6448;48.916;8.990;2023-07-13T00:24:46;26.30;39.00
12769;DHT22;6448;48.916;8.990;2023-07-13T00:25:47;26.30;39.00
12769;DHT22;6448;48.916;8.990;2023-07-13T00:26:51;26.30;38.90
12769;DHT22;6448;48.916;8.990;2023-07-13T00:27:52;26.50;39.00
12769;DHT22;6448;48.916;8.990;2023-07-13T00:28:54;26.30;38.90
12769;DHT22;6448;48.916;8.990;2023-07-13T00:29:55;26.30;38.90
12769;DHT22;6448;48.916;8.990;2023-07-13T00:30:56;26.30;38.80
12769;DHT22;6448;48.916;8.990;2023-07-13T00:31:58;26.30;38.80
12769;DHT22;6448;48.916;8.990;2023-07-13T00:32:59;26.30;38.70
12769;DHT22;6448;48.916;8.990;2023-07-13T00:34:02;26.30;38.60
12769;DHT22;6448;48.916;8.990;2023-07-13T00:35:03;26.30;38.50
12769;DHT22;6448;48.916;8.990;2023-07-13T00:36:05;26.30;38.50
12769;DHT22;6448;48.916;8.990;2023-07-13T00:37:07;26.20;38.50
12769;DHT22;6448;48.916;8.990;2023-07-13T00:38:09;26.30;38.50
12769;DHT22;6448;48.916;8.990;2023-07-13T00:39:10;26.20;38.40
12769;DHT22;6448;48.916;8.990;2023-07-13T00:40:12;26.20;38.50
12769;DHT22;6448;48.916;8.990;2023-07-13T00:41:14;26.20;38.50
12769;DHT22;6448;48.916;8.990;2023-07-13T00:42:15;26.20;38.50
12769;DHT22;6448;48.916;8.990;2023-07-13T00:43:19;26.20;38.60
12769;DHT22;6448;48.916;8.990;2023-07-13T00:44:20;26.20;38.50
12769;DHT22;6448;48.916;8.990;2023-07-13T00:47:02;26.20;38.50
12769;DHT22;6448;48.916;8.990;2023-07-13T00:48:03;26.10;38.40
12769;DHT22;6448;48.916;8.990;2023-07-13T00:49:08;26.10;38.40
12769;DHT22;6448;48.916;8.990;2023-07-13T00:50:14;26.10;38.40
12769;DHT22;6448;48.916;8.990;2023-07-13T00:51:20;26.10;38.40
12769;DHT22;6448;48.916;8.990;2023-07-13T00:52:23;26.10;38.50
12769;DHT22;6448;48.916;8.990;2023-07-13T00:53:26;26.10;38.60
12769;DHT22;6448;48.916;8.990;2023-07-13T00:54:30;26.10;38.60
12769;DHT22;6448;48.916;8.990;2023-07-13T00:55:33;26.10;38.60
12769;DHT22;6448;48.916;8.990;2023-07-13T00:56:35;26.10;38.70
12769;DHT22;6448;48.916;8.990;2023-07-13T00:57:37;26.10;38.70
12769;DHT22;6448;48.916;8.990;2023-07-13T00:58:38;26.10;38.80
12769;DHT22;6448;48.916;8.990;2023-07-13T00:59:42;26.10;39.00
12769;DHT22;6448;48.916;8.990;2023-07-13T01:00:44;26.10;39.50
12769;DHT22;6448;48.916;8.990;2023-07-13T01:01:48;26.10;38.80
12769;DHT22;6448;48.916;8.990;2023-07-13T01:02:49;26.10;39.10
12769;DHT22;6448;48.916;8.990;2023-07-13T01:03:51;26.20;39.40
12769;DHT22;6448;48.916;8.990;2023-07-13T01:04:55;26.10;39.50
12769;DHT22;6448;48.916;8.990;2023-07-13T01:05:56;26.10;39.60
12769;DHT22;6448;48.916;8.990;2023-07-13T01:06:58;26.10;39.40
12769;DHT22;6448;48.916;8.990;2023-07-13T01:08:02;26.10;39.10
12769;DHT22;6448;48.916;8.990;2023-07-13T01:09:06;26.10;39.10
12769;DHT22;6448;48.916;8.990;2023-07-13T01:10:08;26.20;39.00
12769;DHT22;6448;48.916;8.990;2023-07-13T01:11:10;26.20;38.90
12769;DHT22;6448;48.916;8.990;2023-07-13T01:12:11;26.10;38.90
12769;DHT22;6448;48.916;8.990;2023-07-13T01:13:14;26.10;38.90
12769;DHT22;6448;48.916;8.990;2023-07-13T01:14:15;26.10;39.00
12769;DHT22;6448;48.916;8.990;2023-07-13T01:15:37;26.10;39.00
12769;DHT22;6448;48.916;8.990;2023-07-13T01:16:40;26.10;39.10
12769;DHT22;6448;48.916;8.990;2023-07-13T01:17:43;26.10;39.10
12769;DHT22;6448;48.916;8.990;2023-07-13T01:18:44;26.10;39.10
12769;DHT22;6448;48.916;8.990;2023-07-13T01:19:46;26.00;39.00
12769;DHT22;6448;48.916;8.990;2023-07-13T01:20:52;26.00;39.10
12769;DHT22;6448;48.916;8.990;2023-07-13T01:21:54;26.00;39.10
12769;DHT22;6448;48.916;8.990;2023-07-13T01:22:54;26.00;39.10
12769;DHT22;6448;48.916;8.990;2023-07-13T01:23:56;26.00;39.10
12769;DHT22;6448;48.916;8.990;2023-07-13T01:24:58;26.00;39.20
12769;DHT22;6448;48.916;8.990;2023-07-13T01:26:00;25.90;39.10
12769;DHT22;6448;48.916;8.990;2023-07-13T01:27:01;25.90;39.10
12769;DHT22;6448;48.916;8.990;2023-07-13T01:28:02;25.90;39.10
12769;DHT22;6448;48.916;8.990;2023-07-13T01:29:05;25.90;39.20
12769;DHT22;6448;48.916;8.990;2023-07-13T01:30:09;25.90;39.20
12769;DHT22;6448;48.916;8.990;2023-07-13T01:31:11;25.90;39.20
12769;DHT22;6448;48.916;8.990;2023-07-13T01:32:18;25.90;39.30
12769;DHT22;6448;48.916;8.990;2023-07-13T01:33:23;25.80;39.30
12769;DHT22;6448;48.916;8.990;2023-07-13T01:34:24;25.80;39.30
12769;DHT22;6448;48.916;8.990;2023-07-13T01:35:26;25.80;39.30
12769;DHT22;6448;48.916;8.990;2023-07-13T01:36:29;25.80;39.40
12769;DHT22;6448;48.916;8.990;2023-07-13T01:37:31;25.80;39.50
12769;DHT22;6448;48.916;8.990;2023-07-13T01:38:35;25.80;39.50
12769;DHT22;6448;48.916;8.990;2023-07-13T01:39:37;25.70;39.50
12769;DHT22;6448;48.916;8.990;2023-07-13T01:40:38;25.60;39.50
12769;DHT22;6448;48.916;8.990;2023-07-13T01:41:40;25.70;39.70
12769;DHT22;6448;48.916;8.990;2023-07-13T01:42:41;25.70;39.70
12769;DHT22;6448;48.916;8.990;2023-07-13T01:43:43;25.60;39.70
12769;DHT22;6448;48.916;8.990;2023-07-13T01:44:44;25.60;39.80
12769;DHT22;6448;48.916;8.990;2023-07-13T01:45:45;25.60;39.80
12769;DHT22;6448;48.916;8.990;2023-07-13T01:46:46;25.60;39.80
12769;DHT22;6448;48.916;8.990;2023-07-13T01:47:48;25.60;39.90
12769;DHT22;6448;48.916;8.990;2023-07-13T01:48:49;25.60;40.00
12769;DHT22;6448;48.916;8.990;2023-07-13T01:49:51;25.50;40.00
12769;DHT22;6448;48.916;8.990;2023-07-13T01:50:52;25.50;40.10
12769;DHT22;6448;48.916;8.990;2023-07-13T01:51:55;25.50;40.10
12769;DHT22;6448;48.916;8.990;2023-07-13T01:52:56;25.50;40.20
12769;DHT22;6448;48.916;8.990;2023-07-13T01:53:58;25.50;40.30
12769;DHT22;6448;48.916;8.990;2023-07-13T01:54:58;25.50;40.30
12769;DHT22;6448;48.916;8.990;2023-07-13T01:56:00;25.50;40.30
12769;DHT22;6448;48.916;8.990;2023-07-13T01:57:01;25.50;40.40
12769;DHT22;6448;48.916;8.990;2023-07-13T01:58:05;25.40;40.40
12769;DHT22;6448;48.916;8.990;2023-07-13T01:59:06;25.50;40.60
12769;DHT22;6448;48.916;8.990;2023-07-13T02:00:10;25.40;40.60
12769;DHT22;6448;48.916;8.990;2023-07-13T02:01:17;25.40;40.60
12769;DHT22;6448;48.916;8.990;2023-07-13T02:02:19;25.40;40.70
12769;DHT22;6448;48.916;8.990;2023-07-13T02:03:20;25.40;40.80
12769;DHT22;6448;48.916;8.990;2023-07-13T02:04:22;25.40;40.80
12769;DHT22;6448;48.916;8.990;2023-07-13T02:05:23;25.30;40.90
12769;DHT22;6448;48.916;8.990;2023-07-13T02:06:25;25.30;41.00
12769;DHT22;6448;48.916;8.990;2023-07-13T02:07:27;25.40;41.10
12769;DHT22;6448;48.916;8.990;2023-07-13T02:08:29;25.30;41.20
12769;DHT22;6448;48.916;8.990;2023-07-13T02:09:30;25.30;41.20
12769;DHT22;6448;48.916;8.990;2023-07-13T02:10:31;25.30;41.30
12769;DHT22;6448;48.916;8.990;2023-07-13T02:11:33;25.30;41.40
12769;DHT22;6448;48.916;8.990;2023-07-13T02:12:35;25.30;41.30
12769;DHT22;6448;48.916;8.990;2023-07-13T02:13:36;25.30;41.30
12769;DHT22;6448;48.916;8.990;2023-07-13T02:14:37;25.20;41.20
12769;DHT22;6448;48.916;8.990;2023-07-13T02:15:39;25.20;41.40
12769;DHT22;6448;48.916;8.990;2023-07-13T02:16:41;25.20;41.40
12769;DHT22;6448;48.916;8.990;2023-07-13T02:17:42;25.40;41.60
12769;DHT22;6448;48.916;8.990;2023-07-13T02:18:44;25.20;41.40
12769;DHT22;6448;48.916;8.990;2023-07-13T02:19:44;25.20;41.40
12769;DHT22;6448;48.916;8.990;2023-07-13T02:20:46;25.20;41.50
12769;DHT22;6448;48.916;8.990;2023-07-13T02:21:47;25.20;41.40
12769;DHT22;6448;48.916;8.990;2023-07-13T02:22:51;25.20;41.50
12769;DHT22;6448;48.916;8.990;2023-07-13T02:23:54;25.20;41.50
12769;DHT22;6448;48.916;8.990;2023-07-13T02:24:55;25.20;41.50
12769;DHT22;6448;48.916;8.990;2023-07-13T02:25:57;25.20;41.50
12769;DHT22;6448;48.916;8.990;2023-07-13T02:26:59;25.30;41.60
12769;DHT22;6448;48.916;8.990;2023-07-13T02:28:00;25.20;41.60
12769;DHT22;6448;48.916;8.990;2023-07-13T02:29:02;25.20;41.70
12769;DHT22;6448;48.916;8.990;2023-07-13T02:30:04;25.20;41.70
12769;DHT22;6448;48.916;8.990;2023-07-13T02:31:07;25.20;41.90
12769;DHT22;6448;48.916;8.990;2023-07-13T02:32:08;25.20;41.90
12769;DHT22;6448;48.916;8.990;2023-07-13T02:33:10;25.20;42.00
12769;DHT22;6448;48.916;8.990;2023-07-13T02:34:10;25.20;42.10
12769;DHT22;6448;48.916;8.990;2023-07-13T02:35:12;25.20;42.10
12769;DHT22;6448;48.916;8.990;2023-07-13T02:36:13;25.20;42.20
12769;DHT22;6448;48.916;8.990;2023-07-13T02:37:18;25.20;42.30
12769;DHT22;6448;48.916;8.990;2023-07-13T02:38:21;25.20;42.30
12769;DHT22;6448;48.916;8.990;2023-07-13T02:39:22;25.20;42.30
12769;DHT22;6448;48.916;8.990;2023-07-13T02:40:23;25.20;42.40
12769;DHT22;6448;48.916;8.990;2023-07-13T02:41:26;25.30;42.50
12769;DHT22;6448;48.916;8.990;2023-07-13T02:42:27;25.30;42.50
12769;DHT22;6448;48.916;8.990;2023-07-13T02:43:29;25.30;42.50
12769;DHT22;6448;48.916;8.990;2023-07-13T02:44:30;25.20;42.50
12769;DHT22;6448;48.916;8.990;2023-07-13T02:45:32;25.20;42.60
12769;DHT22;6448;48.916;8.990;2023-07-13T02:46:34;25.20;42.60
12769;DHT22;6448;48.916;8.990;2023-07-13T02:47:36;25.20;42.60
12769;DHT22;6448;48.916;8.990;2023-07-13T02:48:38;25.30;42.70
12769;DHT22;6448;48.916;8.990;2023-07-13T02:49:40;25.20;42.70
12769;DHT22;6448;48.916;8.990;2023-07-13T02:50:41;25.20;42.80
12769;DHT22;6448;48.916;8.990;2023-07-13T02:51:42;25.20;42.80
12769;DHT22;6448;48.916;8.990;2023-07-13T02:52:44;25.20;42.90
12769;DHT22;6448;48.916;8.990;2023-07-13T02:53:47;25.10;42.80
12769;DHT22;6448;48.916;8.990;2023-07-13T02:54:48;25.20;43.00
12769;DHT22;6448;48.916;8.990;2023-07-13T02:55:50;25.10;42.90
12769;DHT22;6448;48.916;8.990;2023-07-13T02:56:51;25.10;42.90
12769;DHT22;6448;48.916;8.990;2023-07-13T02:57:53;25.10;43.00
12769;DHT22;6448;48.916;8.990;2023-07-13T02:58:55;25.10;43.00
12769;DHT22;6448;48.916;8.990;2023-07-13T02:59:55;25.10;43.10
12769;DHT22;6448;48.916;8.990;2023-07-13T03:00:57;25.20;43.20
12769;DHT22;6448;48.916;8.990;2023-07-13T03:02:00;25.10;43.20
12769;DHT22;6448;48.916;8.990;2023-07-13T03:03:02;25.10;43.20
12769;DHT22;6448;48.916;8.990;2023-07-13T03:04:03;25.10;43.20
12769;DHT22;6448;48.916;8.990;2023-07-13T03:05:09;25.10;43.30
12769;DHT22;6448;48.916;8.990;2023-07-13T03:06:14;25.10;43.30
12769;DHT22;6448;48.916;8.990;2023-07-13T03:07:23;25.10;43.90
12769;DHT22;6448;48.916;8.990;2023-07-13T03:08:26;25.10;43.30
12769;DHT22;6448;48.916;8.990;2023-07-13T03:09:30;25.10;43.30
12769;DHT22;6448;48.916;8.990;2023-07-13T03:10:34;25.10;43.30
12769;DHT22;6448;48.916;8.990;2023-07-13T03:11:36;25.10;43.40
12769;DHT22;6448;48.916;8.990;2023-07-13T03:12:51;25.00;43.30
12769;DHT22;6448;48.916;8.990;2023-07-13T03:13:58;25.10;43.30
12769;DHT22;6448;48.916;8.990;2023-07-13T03:14:59;25.00;43.30
12769;DHT22;6448;48.916;8.990;2023-07-13T03:16:02;25.00;43.30
12769;DHT22;6448;48.916;8.990;2023-07-13T03:17:04;25.00;43.30
12769;DHT22;6448;48.916;8.990;2023-07-13T03:18:09;25.00;43.30
12769;DHT22;6448;48.916;8.990;2023-07-13T03:19:09;25.00;43.30
12769;DHT22;6448;48.916;8.990;2023-07-13T03:20:12;25.00;43.30
12769;DHT22;6448;48.916;8.990;2023-07-13T03:21:13;25.00;43.20
12769;DHT22;6448;48.916;8.990;2023-07-13T03:22:15;25.00;43.20
12769;DHT22;6448;48.916;8.990;2023-07-13T03:23:17;25.00;43.30
12769;DHT22;6448;48.916;8.990;2023-07-13T03:24:18;25.00;43.30
12769;DHT22;6448;48.916;8.990;2023-07-13T03:25:21;25.00;43.40
12769;DHT22;6448;48.916;8.990;2023-07-13T03:26:23;25.00;43.40
12769;DHT22;6448;48.916;8.990;2023-07-13T03:27:24;25.00;43.50
12769;DHT22;6448;48.916;8.990;2023-07-13T03:28:26;24.90;43.50
12769;DHT22;6448;48.916;8.990;2023-07-13T03:29:29;24.90;43.50
12769;DHT22;6448;48.916;8.990;2023-07-13T03:30:31;24.90;43.50
12769;DHT22;6448;48.916;8.990;2023-07-13T03:31:34;24.90;43.50
12769;DHT22;6448;48.916;8.990;2023-07-13T03:32:36;24.90;43.50
12769;DHT22;6448;48.916;8.990;2023-07-13T03:33:37;24.90;43.60
12769;DHT22;6448;48.916;8.990;2023-07-13T03:34:39;24.80;43.60
12769;DHT22;6448;48.916;8.990;2023-07-13T03:35:41;24.90;43.60
12769;DHT22;6448;48.916;8.990;2023-07-13T03:36:42;24.90;43.60
12769;DHT22;6448;48.916;8.990;2023-07-13T03:37:47;24.90;43.60
12769;DHT22;6448;48.916;8.990;2023-07-13T03:38:54;24.90;43.60
12769;DHT22;6448;48.916;8.990;2023-07-13T03:40:00;24.80;43.60
12769;DHT22;6448;48.916;8.990;2023-07-13T03:41:02;24.90;43.60
12769;DHT22;6448;48.916;8.990;2023-07-13T03:42:05;24.80;43.60
12769;DHT22;6448;48.916;8.990;2023-07-13T03:43:07;24.80;43.60
12769;DHT22;6448;48.916;8.990;2023-07-13T03:44:09;24.80;43.60
12769;DHT22;6448;48.916;8.990;2023-07-13T03:45:10;24.80;43.60
12769;DHT22;6448;48.916;8.990;2023-07-13T03:46:11;24.80;43.60
12769;DHT22;6448;48.916;8.990;2023-07-13T03:47:13;24.80;43.60
12769;DHT22;6448;48.916;8.990;2023-07-13T03:48:14;24.80;43.60
12769;DHT22;6448;48.916;8.990;2023-07-13T03:49:16;24.80;43.60
12769;DHT22;6448;48.916;8.990;2023-07-13T03:50:17;24.80;43.50
12769;DHT22;6448;48.916;8.990;2023-07-13T03:51:19;24.70;43.50
12769;DHT22;6448;48.916;8.990;2023-07-13T03:52:20;24.70;43.50
12769;DHT22;6448;48.916;8.990;2023-07-13T03:53:22;24.70;44.20
12769;DHT22;6448;48.916;8.990;2023-07-13T03:54:23;24.60;43.50
12769;DHT22;6448;48.916;8.990;2023-07-13T03:55:25;24.60;43.60
12769;DHT22;6448;48.916;8.990;2023-07-13T03:56:29;24.60;43.60
12769;DHT22;6448;48.916;8.990;2023-07-13T03:57:33;24.60;43.60
12769;DHT22;6448;48.916;8.990;2023-07-13T03:58:38;24.50;43.60
12769;DHT22;6448;48.916;8.990;2023-07-13T03:59:45;24.50;43.60
12769;DHT22;6448;48.916;8.990;2023-07-13T04:00:47;24.50;43.70
12769;DHT22;6448;48.916;8.990;2023-07-13T04:01:48;24.40;43.70
12769;DHT22;6448;48.916;8.990;2023-07-13T04:02:49;24.50;43.80
12769;DHT22;6448;48.916;8.990;2023-07-13T04:03:51;24.40;43.80
12769;DHT22;6448;48.916;8.990;2023-07-13T04:04:56;24.40;43.90
12769;DHT22;6448;48.916;8.990;2023-07-13T04:05:59;24.40;44.00
12769;DHT22;6448;48.916;8.990;2023-07-13T04:07:01;24.30;44.00
12769;DHT22;6448;48.916;8.990;2023-07-13T04:08:02;24.30;44.00
12769;DHT22;6448;48.916;8.990;2023-07-13T04:09:08;24.30;44.10
12769;DHT22;6448;48.916;8.990;2023-07-13T04:10:10;24.30;44.10
12769;DHT22;6448;48.916;8.990;2023-07-13T04:11:12;24.30;44.20
12769;DHT22;6448;48.916;8.990;2023-07-13T04:12:14;24.30;44.20
12769;DHT22;6448;48.916;8.990;2023-07-13T04:13:17;24.30;44.30
12769;DHT22;6448;48.916;8.990;2023-07-13T04:14:18;24.30;44.30
12769;DHT22;6448;48.916;8.990;2023-07-13T04:15:21;24.30;44.30
12769;DHT22;6448;48.916;8.990;2023-07-13T04:16:21;24.30;44.30
12769;DHT22;6448;48.916;8.990;2023-07-13T04:17:23;24.30;44.30
12769;DHT22;6448;48.916;8.990;2023-07-13T04:18:24;24.30;44.40
12769;DHT22;6448;48.916;8.990;2023-07-13T04:19:30;24.30;44.40
12769;DHT22;6448;48.916;8.990;2023-07-13T04:20:31;24.30;44.40
12769;DHT22;6448;48.916;8.990;2023-07-13T04:21:33;24.30;44.50
12769;DHT22;6448;48.916;8.990;2023-07-13T04:22:34;24.30;44.50
12769;DHT22;6448;48.916;8.990;2023-07-13T04:23:36;24.30;44.50
12769;DHT22;6448;48.916;8.990;2023-07-13T04:24:36;24.30;44.50
12769;DHT22;6448;48.916;8.990;2023-07-13T04:25:38;24.30;44.50
12769;DHT22;6448;48.916;8.990;2023-07-13T04:26:39;24.30;44.40
12769;DHT22;6448;48.916;8.990;2023-07-13T04:27:42;24.50;44.60
12769;DHT22;6448;48.916;8.990;2023-07-13T04:28:43;24.30;44.50
12769;DHT22;6448;48.916;8.990;2023-07-13T04:29:45;24.30;44.60
12769;DHT22;6448;48.916;8.990;2023-07-13T04:30:45;24.30;44.70
12769;DHT22;6448;48.916;8.990;2023-07-13T04:31:47;24.30;44.70
12769;DHT22;6448;48.916;8.990;2023-07-13T04:32:49;24.30;44.70
12769;DHT22;6448;48.916;8.990;2023-07-13T04:33:52;24.30;44.80
12769;DHT22;6448;48.916;8.990;2023-07-13T04:34:53;24.30;44.80
12769;DHT22;6448;48.916;8.990;2023-07-13T04:35:57;24.30;44.80
12769;DHT22;6448;48.916;8.990;2023-07-13T04:36:57;24.30;44.80
12769;DHT22;6448;48.916;8.990;2023-07-13T04:37:59;24.30;45.00
12769;DHT22;6448;48.916;8.990;2023-07-13T04:39:00;24.30;45.10
12769;DHT22;6448;48.916;8.990;2023-07-13T04:40:02;24.30;45.20
12769;DHT22;6448;48.916;8.990;2023-07-13T04:41:06;24.30;45.30
12769;DHT22;6448;48.916;8.990;2023-07-13T04:42:08;24.30;45.40
12769;DHT22;6448;48.916;8.990;2023-07-13T04:43:10;24.30;45.40
12769;DHT22;6448;48.916;8.990;2023-07-13T04:44:12;24.20;45.30
12769;DHT22;6448;48.916;8.990;2023-07-13T04:45:13;24.30;45.30
12769;DHT22;6448;48.916;8.990;2023-07-13T04:46:17;24.40;45.30
12769;DHT22;6448;48.916;8.990;2023-07-13T04:47:18;24.30;45.20
12769;DHT22;6448;48.916;8.990;2023-07-13T04:48:20;24.20;45.20
12769;DHT22;6448;48.916;8.990;2023-07-13T04:49:21;24.30;45.30
12769;DHT22;6448;48.916;8.990;2023-07-13T04:50:23;24.20;45.30
12769;DHT22;6448;48.916;8.990;2023-07-13T04:51:24;24.20;45.30
12769;DHT22;6448;48.916;8.990;2023-07-13T04:52:26;24.20;45.40
12769;DHT22;6448;48.916;8.990;2023-07-13T04:53:27;24.20;45.40
12769;DHT22;6448;48.916;8.990;2023-07-13T04:54:29;24.30;45.50
12769;DHT22;6448;48.916;8.990;2023-07-13T04:55:30;24.20;45.40
12769;DHT22;6448;48.916;8.990;2023-07-13T04:56:32;24.20;45.40
12769;DHT22;6448;48.916;8.990;2023-07-13T04:57:33;24.20;45.20
12769;DHT22;6448;48.916;8.990;2023-07-13T04:58:36;24.20;45.20
12769;DHT22;6448;48.916;8.990;2023-07-13T04:59:37;24.20;45.20
12769;DHT22;6448;48.916;8.990;2023-07-13T05:00:39;24.20;45.30
12769;DHT22;6448;48.916;8.990;2023-07-13T05:01:40;24.20;45.10
12769;DHT22;6448;48.916;8.990;2023-07-13T05:02:43;24.20;45.10
12769;DHT22;6448;48.916;8.990;2023-07-13T05:03:44;24.20;45.20
12769;DHT22;6448;48.916;8.990;2023-07-13T05:04:46;24.10;45.10
12769;DHT22;6448;48.916;8.990;2023-07-13T05:05:55;24.20;45.20
12769;DHT22;6448;48.916;8.990;2023-07-13T05:06:57;24.20;45.30
12769;DHT22;6448;48.916;8.990;2023-07-13T05:07:58;24.20;45.20
12769;DHT22;6448;48.916;8.990;2023-07-13T05:08:59;24.20;45.20
12769;DHT22;6448;48.916;8.990;2023-07-13T05:10:00;24.20;45.30
12769;DHT22;6448;48.916;8.990;2023-07-13T05:11:05;24.20;45.30
12769;DHT22;6448;48.916;8.990;2023-07-13T05:12:07;24.20;45.30
12769;DHT22;6448;48.916;8.990;2023-07-13T05:13:09;24.20;45.30
12769;DHT22;6448;48.916;8.990;2023-07-13T05:14:12;24.20;45.30
12769;DHT22;6448;48.916;8.990;2023-07-13T05:15:14;24.20;45.30
12769;DHT22;6448;48.916;8.990;2023-07-13T05:16:15;24.20;45.40
12769;DHT22;6448;48.916;8.990;2023-07-13T05:17:17;24.20;45.50
12769;DHT22;6448;48.916;8.990;2023-07-13T05:18:18;24.30;45.40
12769;DHT22;6448;48.916;8.990;2023-07-13T05:19:19;24.30;45.30
12769;DHT22;6448;48.916;8.990;2023-07-13T05:20:20;24.30;45.30
12769;DHT22;6448;48.916;8.990;2023-07-13T05:21:22;24.20;45.30
12769;DHT22;6448;48.916;8.990;2023-07-13T05:22:23;24.30;45.30
12769;DHT22;6448;48.916;8.990;2023-07-13T05:23:24;24.30;45.30
12769;DHT22;6448;48.916;8.990;2023-07-13T05:24:25;24.30;45.40
12769;DHT22;6448;48.916;8.990;2023-07-13T05:25:26;24.30;45.40
12769;DHT22;6448;48.916;8.990;2023-07-13T05:26:28;24.30;45.40
12769;DHT22;6448;48.916;8.990;2023-07-13T05:27:28;24.30;45.40
12769;DHT22;6448;48.916;8.990;2023-07-13T05:28:31;24.30;45.50
12769;DHT22;6448;48.916;8.990;2023-07-13T05:29:34;24.30;45.50
12769;DHT22;6448;48.916;8.990;2023-07-13T05:30:35;24.30;45.50
12769;DHT22;6448;48.916;8.990;2023-07-13T05:31:36;24.30;45.50
12769;DHT22;6448;48.916;8.990;2023-07-13T05:32:37;24.30;45.50
12769;DHT22;6448;48.916;8.990;2023-07-13T05:33:39;24.30;45.50
12769;DHT22;6448;48.916;8.990;2023-07-13T05:34:40;24.30;45.50
12769;DHT22;6448;48.916;8.990;2023-07-13T05:35:42;24.30;45.50
12769;DHT22;6448;48.916;8.990;2023-07-13T05:36:43;24.30;45.50
12769;DHT22;6448;48.916;8.990;2023-07-13T05:37:44;24.40;45.60
12769;DHT22;6448;48.916;8.990;2023-07-13T05:38:45;24.30;45.70
12769;DHT22;6448;48.916;8.990;2023-07-13T05:39:47;24.40;45.80
12769;DHT22;6448;48.916;8.990;2023-07-13T05:40:48;24.40;45.80
12769;DHT22;6448;48.916;8.990;2023-07-13T05:41:50;24.40;45.80
12769;DHT22;6448;48.916;8.990;2023-07-13T05:42:50;24.30;45.70
12769;DHT22;6448;48.916;8.990;2023-07-13T05:43:52;24.40;45.80
12769;DHT22;6448;48.916;8.990;2023-07-13T05:44:54;24.40;45.80
12769;DHT22;6448;48.916;8.990;2023-07-13T05:45:57;24.40;45.80
12769;DHT22;6448;48.916;8.990;2023-07-13T05:46:57;24.50;45.90
12769;DHT22;6448;48.916;8.990;2023-07-13T05:47:59;24.50;45.90
12769;DHT22;6448;48.916;8.990;2023-07-13T05:49:00;24.30;45.80
12769;DHT22;6448;48.916;8.990;2023-07-13T05:50:02;24.50;45.90
12769;DHT22;6448;48.916;8.990;2023-07-13T05:51:03;24.50;46.00
12769;DHT22;6448;48.916;8.990;2023-07-13T05:52:05;24.50;45.90
12769;DHT22;6448;48.916;8.990;2023-07-13T05:53:06;24.50;45.90
12769;DHT22;6448;48.916;8.990;2023-07-13T05:54:08;24.50;45.90
12769;DHT22;6448;48.916;8.990;2023-07-13T05:55:09;24.50;45.90
12769;DHT22;6448;48.916;8.990;2023-07-13T05:56:11;24.50;45.80
12769;DHT22;6448;48.916;8.990;2023-07-13T05:57:12;24.50;45.70
12769;DHT22;6448;48.916;8.990;2023-07-13T05:58:14;24.50;45.60
12769;DHT22;6448;48.916;8.990;2023-07-13T05:59:15;24.70;45.60
12769;DHT22;6448;48.916;8.990;2023-07-13T06:00:18;24.50;45.40
12769;DHT22;6448;48.916;8.990;2023-07-13T06:01:19;24.50;45.40
12769;DHT22;6448;48.916;8.990;2023-07-13T06:02:23;24.50;45.30
12769;DHT22;6448;48.916;8.990;2023-07-13T06:03:23;24.50;45.30
12769;DHT22;6448;48.916;8.990;2023-07-13T06:04:24;24.50;45.30
12769;DHT22;6448;48.916;8.990;2023-07-13T06:05:26;24.50;45.30
12769;DHT22;6448;48.916;8.990;2023-07-13T06:06:29;24.50;45.30
12769;DHT22;6448;48.916;8.990;2023-07-13T06:07:31;24.50;45.60
12769;DHT22;6448;48.916;8.990;2023-07-13T06:08:32;24.50;45.30
12769;DHT22;6448;48.916;8.990;2023-07-13T06:09:33;24.50;45.20
12769;DHT22;6448;48.916;8.990;2023-07-13T06:10:35;24.50;45.10
12769;DHT22;6448;48.916;8.990;2023-07-13T06:11:37;24.50;45.00
12769;DHT22;6448;48.916;8.990;2023-07-13T06:12:39;24.40;45.00
12769;DHT22;6448;48.916;8.990;2023-07-13T06:13:40;24.40;45.00
12769;DHT22;6448;48.916;8.990;2023-07-13T06:14:42;24.50;45.10
12769;DHT22;6448;48.916;8.990;2023-07-13T06:15:48;24.50;45.00
12769;DHT22;6448;48.916;8.990;2023-07-13T06:16:49;24.40;44.90
12769;DHT22;6448;48.916;8.990;2023-07-13T06:17:50;24.50;45.00
12769;DHT22;6448;48.916;8.990;2023-07-13T06:18:52;24.50;45.00
12769;DHT22;6448;48.916;8.990;2023-07-13T06:19:53;24.50;44.90
12769;DHT22;6448;48.916;8.990;2023-07-13T06:20:54;24.40;44.90
12769;DHT22;6448;48.916;8.990;2023-07-13T06:21:55;24.50;45.00
12769;DHT22;6448;48.916;8.990;2023-07-13T06:22:58;24.50;45.00
12769;DHT22;6448;48.916;8.990;2023-07-13T06:23:59;24.50;45.00
12769;DHT22;6448;48.916;8.990;2023-07-13T06:25:01;24.40;45.10
12769;DHT22;6448;48.916;8.990;2023-07-13T06:26:02;24.50;45.20
12769;DHT22;6448;48.916;8.990;2023-07-13T06:27:05;24.50;45.20
12769;DHT22;6448;48.916;8.990;2023-07-13T06:28:06;24.50;45.30
12769;DHT22;6448;48.916;8.990;2023-07-13T06:29:07;24.50;45.30
12769;DHT22;6448;48.916;8.990;2023-07-13T06:30:09;24.50;45.30
12769;DHT22;6448;48.916;8.990;2023-07-13T06:31:13;24.50;45.30
12769;DHT22;6448;48.916;8.990;2023-07-13T06:32:14;24.50;45.30
12769;DHT22;6448;48.916;8.990;2023-07-13T06:33:16;24.50;45.20
12769;DHT22;6448;48.916;8.990;2023-07-13T06:34:17;24.60;45.20
12769;DHT22;6448;48.916;8.990;2023-07-13T06:35:19;24.60;45.10
12769;DHT22;6448;48.916;8.990;2023-07-13T06:36:19;24.50;44.90
12769;DHT22;6448;48.916;8.990;2023-07-13T06:37:21;24.50;44.80
12769;DHT22;6448;48.916;8.990;2023-07-13T06:38:22;24.50;44.80
12769;DHT22;6448;48.916;8.990;2023-07-13T06:39:24;24.50;44.80
12769;DHT22;6448;48.916;8.990;2023-07-13T06:40:24;24.60;44.20